sensor_id;sensor_type;location;lat;lon;timestamp;pressure;altitude;pressure_sealevel;temperature;humidity
73338;BME280;61575;49.908;35.556;2023-02-28T00:02:59;100013.50;;;-0.45;87.78
73338;BME280;61575;49.908;35.556;2023-02-28T00:06:03;100013.75;;;-0.49;87.80
73338;BME280;61575;49.908;35.556;2023-02-28T00:09:06;100005.84;;;-0.49;87.83
73338;BME280;61575;49.908;35.556;2023-02-28T00:12:09;100013.00;;;-0.51;87.61
73338;BME280;61575;49.908;35.556;2023-02-28T00:15:12;100004.31;;;-0.53;87.80
73338;BME280;61575;49.908;35.556;2023-02-28T00:18:14;100006.38;;;-0.58;87.65
73338;BME280;61575;49.908;35.556;2023-02-28T00:21:17;99999.47;;;-0.61;87.66
73338;BME280;61575;49.908;35.556;2023-02-28T00:24:19;99993.72;;;-0.67;87.75
73338;BME280;61575;49.908;35.556;2023-02-28T00:27:21;99993.03;;;-0.71;87.87
73338;BME280;61575;49.908;35.556;2023-02-28T00:30:23;99999.16;;;-0.70;88.05
73338;BME280;61575;49.908;35.556;2023-02-28T00:33:26;99997.63;;;-0.74;87.84
73338;BME280;61575;49.908;35.556;2023-02-28T00:36:28;100003.00;;;-0.76;87.82
73338;BME280;61575;49.908;35.556;2023-02-28T00:39:30;100003.66;;;-0.72;87.68
73338;BME280;61575;49.908;35.556;2023-02-28T00:42:33;100004.34;;;-0.69;87.87
73338;BME280;61575;49.908;35.556;2023-02-28T00:45:36;100007.91;;;-0.70;87.75
73338;BME280;61575;49.908;35.556;2023-02-28T00:48:40;100004.34;;;-0.69;87.39
73338;BME280;61575;49.908;35.556;2023-02-28T00:51:42;100005.63;;;-0.76;87.44
73338;BME280;61575;49.908;35.556;2023-02-28T00:54:44;100014.56;;;-0.79;87.29
73338;BME280;61575;49.908;35.556;2023-02-28T00:57:46;100014.66;;;-0.80;86.95
73338;BME280;61575;49.908;35.556;2023-02-28T01:00:48;100024.69;;;-0.87;87.09
73338;BME280;61575;49.908;35.556;2023-02-28T01:03:53;100019.31;;;-0.85;86.91
73338;BME280;61575;49.908;35.556;2023-02-28T01:06:55;100032.59;;;-0.87;86.66
73338;BME280;61575;49.908;35.556;2023-02-28T01:09:59;100028.16;;;-0.86;86.95
73338;BME280;61575;49.908;35.556;2023-02-28T01:13:01;100037.94;;;-0.88;86.67
73338;BME280;61575;49.908;35.556;2023-02-28T01:16:03;100040.69;;;-0.90;86.70
73338;BME280;61575;49.908;35.556;2023-02-28T01:19:05;100035.91;;;-0.83;86.67
73338;BME280;61575;49.908;35.556;2023-02-28T01:22:07;100035.16;;;-0.85;86.47
73338;BME280;61575;49.908;35.556;2023-02-28T01:25:09;100037.88;;;-0.87;86.65
73338;BME280;61575;49.908;35.556;2023-02-28T01:28:13;100044.06;;;-0.88;86.61
73338;BME280;61575;49.908;35.556;2023-02-28T01:31:15;100033.69;;;-0.91;86.62
73338;BME280;61575;49.908;35.556;2023-02-28T01:34:17;100041.78;;;-0.94;86.36
73338;BME280;61575;49.908;35.556;2023-02-28T01:37:20;100041.88;;;-0.95;86.34
73338;BME280;61575;49.908;35.556;2023-02-28T01:40:22;100044.34;;;-0.92;86.10
73338;BME280;61575;49.908;35.556;2023-02-28T01:43:27;100046.13;;;-0.93;86.43
73338;BME280;61575;49.908;35.556;2023-02-28T01:46:34;100052.00;;;-0.88;86.05
73338;BME280;61575;49.908;35.556;2023-02-28T01:49:39;100053.78;;;-0.88;86.11
73338;BME280;61575;49.908;35.556;2023-02-28T01:52:44;100048.41;;;-0.87;86.00
73338;BME280;61575;49.908;35.556;2023-02-28T01:55:49;100055.22;;;-0.98;85.54
73338;BME280;61575;49.908;35.556;2023-02-28T01:58:54;100062.28;;;-0.99;85.00
73338;BME280;61575;49.908;35.556;2023-02-28T02:01:58;100066.94;;;-1.04;84.69
73338;BME280;61575;49.908;35.556;2023-02-28T02:05:07;100074.59;;;-1.15;84.17
73338;BME280;61575;49.908;35.556;2023-02-28T02:08:12;100074.59;;;-1.15;84.02
73338;BME280;61575;49.908;35.556;2023-02-28T02:11:20;100070.34;;;-1.18;83.78
73338;BME280;61575;49.908;35.556;2023-02-28T02:17:46;100073.84;;;-1.17;83.79
73338;BME280;61575;49.908;35.556;2023-02-28T02:40:50;100101.44;;;-1.24;83.82
73338;BME280;61575;49.908;35.556;2023-02-28T02:47:12;100101.00;;;-1.32;83.40
73338;BME280;61575;49.908;35.556;2023-02-28T02:50:23;100103.03;;;-1.37;83.27
73338;BME280;61575;49.908;35.556;2023-02-28T02:53:38;100109.38;;;-1.41;83.21
73338;BME280;61575;49.908;35.556;2023-02-28T02:56:45;100110.41;;;-1.44;82.94
73338;BME280;61575;49.908;35.556;2023-02-28T02:59:52;100114.97;;;-1.48;82.67
73338;BME280;61575;49.908;35.556;2023-02-28T03:02:56;100110.72;;;-1.50;82.75
73338;BME280;61575;49.908;35.556;2023-02-28T03:06:00;100109.41;;;-1.59;82.46
73338;BME280;61575;49.908;35.556;2023-02-28T03:09:03;100114.28;;;-1.68;82.46
73338;BME280;61575;49.908;35.556;2023-02-28T03:12:06;100115.31;;;-1.71;82.05
73338;BME280;61575;49.908;35.556;2023-02-28T03:15:21;100119.78;;;-1.73;82.17
73338;BME280;61575;49.908;35.556;2023-02-28T03:18:36;100128.47;;;-1.88;82.08
73338;BME280;61575;49.908;35.556;2023-02-28T03:21:51;100133.34;;;-1.81;81.91
73338;BME280;61575;49.908;35.556;2023-02-28T03:28:35;100128.16;;;-1.82;81.77
73338;BME280;61575;49.908;35.556;2023-02-28T03:31:53;100140.22;;;-1.78;81.91
73338;BME280;61575;49.908;35.556;2023-02-28T03:35:09;100135.44;;;-1.70;81.35
73338;BME280;61575;49.908;35.556;2023-02-28T03:38:27;100139.00;;;-1.71;81.49
73338;BME280;61575;49.908;35.556;2023-02-28T03:41:36;100137.28;;;-1.72;81.21
73338;BME280;61575;49.908;35.556;2023-02-28T03:44:48;100127.75;;;-1.74;81.01
73338;BME280;61575;49.908;35.556;2023-02-28T03:51:02;100124.81;;;-1.68;81.28
73338;BME280;61575;49.908;35.556;2023-02-28T03:54:08;100130.16;;;-1.70;81.35
73338;BME280;61575;49.908;35.556;2023-02-28T04:00:40;100117.16;;;-1.73;81.36
73338;BME280;61575;49.908;35.556;2023-02-28T04:03:48;100105.84;;;-1.75;81.63
73338;BME280;61575;49.908;35.556;2023-02-28T04:06:51;100108.81;;;-1.81;81.60
73338;BME280;61575;49.908;35.556;2023-02-28T04:09:54;100105.69;;;-1.89;81.62
73338;BME280;61575;49.908;35.556;2023-02-28T04:12:56;100105.22;;;-1.97;81.78
73338;BME280;61575;49.908;35.556;2023-02-28T04:15:58;100111.56;;;-2.01;81.53
73338;BME280;61575;49.908;35.556;2023-02-28T04:19:02;100108.94;;;-2.01;81.43
73338;BME280;61575;49.908;35.556;2023-02-28T04:22:04;100103.22;;;-2.10;81.27
73338;BME280;61575;49.908;35.556;2023-02-28T04:25:06;100106.00;;;-2.13;81.07
73338;BME280;61575;49.908;35.556;2023-02-28T04:28:08;100113.81;;;-2.11;81.16
73338;BME280;61575;49.908;35.556;2023-02-28T04:31:12;100117.91;;;-2.05;80.96
73338;BME280;61575;49.908;35.556;2023-02-28T04:34:14;100119.47;;;-2.01;80.91
73338;BME280;61575;49.908;35.556;2023-02-28T04:37:16;100115.91;;;-2.00;80.73
73338;BME280;61575;49.908;35.556;2023-02-28T04:40:20;100127.06;;;-1.95;80.87
73338;BME280;61575;49.908;35.556;2023-02-28T04:43:22;100124.28;;;-1.92;80.79
73338;BME280;61575;49.908;35.556;2023-02-28T04:46:24;100117.47;;;-1.96;81.09
73338;BME280;61575;49.908;35.556;2023-02-28T04:49:26;100126.66;;;-2.05;80.46
73338;BME280;61575;49.908;35.556;2023-02-28T04:52:30;100142.38;;;-2.03;80.20
73338;BME280;61575;49.908;35.556;2023-02-28T04:55:32;100142.16;;;-1.99;80.14
73338;BME280;61575;49.908;35.556;2023-02-28T04:58:34;100164.34;;;-2.04;79.72
73338;BME280;61575;49.908;35.556;2023-02-28T05:01:36;100164.06;;;-1.98;79.66
73338;BME280;61575;49.908;35.556;2023-02-28T05:04:38;100166.84;;;-2.01;79.54
73338;BME280;61575;49.908;35.556;2023-02-28T05:07:42;100167.69;;;-2.01;79.47
73338;BME280;61575;49.908;35.556;2023-02-28T05:10:44;100174.59;;;-1.98;79.67
73338;BME280;61575;49.908;35.556;2023-02-28T05:13:49;100180.63;;;-1.96;79.62
73338;BME280;61575;49.908;35.556;2023-02-28T05:16:51;100175.25;;;-2.12;78.92
73338;BME280;61575;49.908;35.556;2023-02-28T05:19:53;100172.31;;;-2.06;79.22
73338;BME280;61575;49.908;35.556;2023-02-28T05:23:11;100179.22;;;-2.03;79.17
73338;BME280;61575;49.908;35.556;2023-02-28T05:26:14;100183.78;;;-2.07;79.01
73338;BME280;61575;49.908;35.556;2023-02-28T05:29:16;100177.59;;;-2.06;79.37
73338;BME280;61575;49.908;35.556;2023-02-28T05:32:18;100187.19;;;-2.05;79.10
73338;BME280;61575;49.908;35.556;2023-02-28T05:35:20;100198.00;;;-2.11;78.90
73338;BME280;61575;49.908;35.556;2023-02-28T05:38:22;100201.97;;;-2.02;78.97
73338;BME280;61575;49.908;35.556;2023-02-28T05:41:24;100204.09;;;-1.92;79.20
73338;BME280;61575;49.908;35.556;2023-02-28T05:44:26;100202.16;;;-1.88;78.96
73338;BME280;61575;49.908;35.556;2023-02-28T05:47:28;100204.34;;;-1.79;78.78
73338;BME280;61575;49.908;35.556;2023-02-28T05:50:30;100206.19;;;-1.81;78.90
73338;BME280;61575;49.908;35.556;2023-02-28T05:53:32;100205.50;;;-1.85;78.40
73338;BME280;61575;49.908;35.556;2023-02-28T05:56:34;100211.91;;;-1.90;78.81
73338;BME280;61575;49.908;35.556;2023-02-28T05:59:36;100213.03;;;-1.77;78.40
73338;BME280;61575;49.908;35.556;2023-02-28T06:02:42;100203.41;;;-1.78;78.50
73338;BME280;61575;49.908;35.556;2023-02-28T06:05:44;100198.63;;;-1.70;78.43
73338;BME280;61575;49.908;35.556;2023-02-28T06:08:46;100195.75;;;-1.65;78.13
73338;BME280;61575;49.908;35.556;2023-02-28T06:11:48;100197.47;;;-1.64;77.65
73338;BME280;61575;49.908;35.556;2023-02-28T06:14:50;100192.75;;;-1.58;77.93
73338;BME280;61575;49.908;35.556;2023-02-28T06:17:52;100195.06;;;-1.52;77.52
73338;BME280;61575;49.908;35.556;2023-02-28T06:20:54;100202.81;;;-1.49;77.12
73338;BME280;61575;49.908;35.556;2023-02-28T06:24:00;100196.25;;;-1.57;77.03
73338;BME280;61575;49.908;35.556;2023-02-28T06:27:02;100192.22;;;-1.47;76.99
73338;BME280;61575;49.908;35.556;2023-02-28T06:30:07;100187.63;;;-1.44;76.82
73338;BME280;61575;49.908;35.556;2023-02-28T06:33:09;100189.28;;;-1.41;76.66
73338;BME280;61575;49.908;35.556;2023-02-28T06:36:13;100191.66;;;-1.36;76.48
73338;BME280;61575;49.908;35.556;2023-02-28T06:39:17;100197.47;;;-1.30;76.10
73338;BME280;61575;49.908;35.556;2023-02-28T06:42:22;100200.03;;;-1.28;76.27
73338;BME280;61575;49.908;35.556;2023-02-28T06:45:26;100203.66;;;-1.14;75.99
73338;BME280;61575;49.908;35.556;2023-02-28T06:48:28;100198.03;;;-1.07;76.46
73338;BME280;61575;49.908;35.556;2023-02-28T06:51:30;100194.94;;;-0.98;75.19
73338;BME280;61575;49.908;35.556;2023-02-28T06:54:36;100195.47;;;-0.92;75.09
73338;BME280;61575;49.908;35.556;2023-02-28T06:57:38;100194.28;;;-0.86;75.01
73338;BME280;61575;49.908;35.556;2023-02-28T07:00:42;100200.84;;;-0.78;74.43
73338;BME280;61575;49.908;35.556;2023-02-28T07:03:46;100188.03;;;-0.68;74.08
73338;BME280;61575;49.908;35.556;2023-02-28T07:06:48;100176.78;;;-0.71;73.71
73338;BME280;61575;49.908;35.556;2023-02-28T07:09:50;100182.16;;;-0.57;73.80
73338;BME280;61575;49.908;35.556;2023-02-28T07:12:52;100178.78;;;-0.43;73.79
73338;BME280;61575;49.908;35.556;2023-02-28T07:18:59;100176.56;;;-0.35;72.62
73338;BME280;61575;49.908;35.556;2023-02-28T07:22:01;100183.63;;;-0.36;72.50
73338;BME280;61575;49.908;35.556;2023-02-28T07:25:05;100189.50;;;-0.15;72.50
73338;BME280;61575;49.908;35.556;2023-02-28T07:28:07;100189.00;;;-0.06;71.67
73338;BME280;61575;49.908;35.556;2023-02-28T07:31:12;100177.72;;;0.22;71.46
73338;BME280;61575;49.908;35.556;2023-02-28T07:34:20;100184.00;;;0.35;70.67
73338;BME280;61575;49.908;35.556;2023-02-28T07:37:22;100189.78;;;0.42;70.05
73338;BME280;61575;49.908;35.556;2023-02-28T07:40:24;100194.56;;;0.65;69.74
73338;BME280;61575;49.908;35.556;2023-02-28T07:43:26;100189.22;;;0.81;69.02
73338;BME280;61575;49.908;35.556;2023-02-28T07:46:28;100191.31;;;0.90;68.59
73338;BME280;61575;49.908;35.556;2023-02-28T07:49:38;100195.63;;;0.77;68.18
73338;BME280;61575;49.908;35.556;2023-02-28T07:52:42;100194.47;;;0.67;68.50
73338;BME280;61575;49.908;35.556;2023-02-28T07:55:45;100201.19;;;0.72;68.34
73338;BME280;61575;49.908;35.556;2023-02-28T07:58:47;100203.56;;;0.47;68.44
73338;BME280;61575;49.908;35.556;2023-02-28T08:01:49;100210.00;;;0.27;67.83
73338;BME280;61575;49.908;35.556;2023-02-28T08:04:54;100212.72;;;0.26;68.83
73338;BME280;61575;49.908;35.556;2023-02-28T08:07:56;100207.34;;;0.27;68.43
73338;BME280;61575;49.908;35.556;2023-02-28T08:10:59;100209.28;;;0.39;67.96
73338;BME280;61575;49.908;35.556;2023-02-28T08:14:02;100200.16;;;0.45;67.56
73338;BME280;61575;49.908;35.556;2023-02-28T08:17:05;100201.44;;;0.68;67.67
73338;BME280;61575;49.908;35.556;2023-02-28T08:20:07;100202.44;;;0.81;66.79
73338;BME280;61575;49.908;35.556;2023-02-28T08:23:10;100198.88;;;1.10;67.25
73338;BME280;61575;49.908;35.556;2023-02-28T08:26:18;100202.28;;;1.12;66.27
73338;BME280;61575;49.908;35.556;2023-02-28T08:29:23;100194.53;;;1.24;66.42
73338;BME280;61575;49.908;35.556;2023-02-28T08:32:25;100193.78;;;1.36;66.43
73338;BME280;61575;49.908;35.556;2023-02-28T08:35:30;100196.53;;;1.34;65.78
73338;BME280;61575;49.908;35.556;2023-02-28T08:38:40;100194.25;;;1.28;65.84
73338;BME280;61575;49.908;35.556;2023-02-28T08:41:44;100204.47;;;1.20;65.74
73338;BME280;61575;49.908;35.556;2023-02-28T08:44:49;100206.63;;;0.99;64.86
73338;BME280;61575;49.908;35.556;2023-02-28T08:47:56;100207.06;;;0.92;65.56
73338;BME280;61575;49.908;35.556;2023-02-28T08:51:09;100213.19;;;0.78;65.63
73338;BME280;61575;49.908;35.556;2023-02-28T08:54:12;100200.53;;;0.83;66.84
73338;BME280;61575;49.908;35.556;2023-02-28T08:57:16;100202.56;;;0.64;66.40
73338;BME280;61575;49.908;35.556;2023-02-28T09:00:18;100200.28;;;0.58;67.29
73338;BME280;61575;49.908;35.556;2023-02-28T09:03:21;100204.09;;;0.38;67.13
73338;BME280;61575;49.908;35.556;2023-02-28T09:06:26;100198.06;;;0.20;68.16
73338;BME280;61575;49.908;35.556;2023-02-28T09:09:32;100193.81;;;0.17;68.16
73338;BME280;61575;49.908;35.556;2023-02-28T09:12:34;100195.81;;;-0.02;69.05
73338;BME280;61575;49.908;35.556;2023-02-28T09:15:37;100188.16;;;-0.06;69.48
73338;BME280;61575;49.908;35.556;2023-02-28T09:18:40;100172.66;;;-0.28;69.31
73338;BME280;61575;49.908;35.556;2023-02-28T09:21:42;100179.63;;;-0.12;69.80
73338;BME280;61575;49.908;35.556;2023-02-28T09:24:44;100173.47;;;0.04;69.57
73338;BME280;61575;49.908;35.556;2023-02-28T09:27:46;100168.63;;;-0.04;69.17
73338;BME280;61575;49.908;35.556;2023-02-28T09:30:53;100172.22;;;-0.05;69.31
73338;BME280;61575;49.908;35.556;2023-02-28T09:33:56;100170.94;;;-0.14;69.63
73338;BME280;61575;49.908;35.556;2023-02-28T09:36:59;100154.91;;;0.05;69.56
73338;BME280;61575;49.908;35.556;2023-02-28T09:40:01;100153.13;;;0.06;69.87
73338;BME280;61575;49.908;35.556;2023-02-28T09:43:05;100154.22;;;0.02;69.11
73338;BME280;61575;49.908;35.556;2023-02-28T09:46:26;100152.88;;;-0.05;69.44
73338;BME280;61575;49.908;35.556;2023-02-28T09:49:37;100142.13;;;0.13;69.76
73338;BME280;61575;49.908;35.556;2023-02-28T09:52:41;100144.16;;;0.08;69.58
73338;BME280;61575;49.908;35.556;2023-02-28T09:56:15;100135.59;;;-0.11;69.22
73338;BME280;61575;49.908;35.556;2023-02-28T10:02:41;100119.69;;;-0.25;70.28
73338;BME280;61575;49.908;35.556;2023-02-28T10:05:52;100117.00;;;-0.55;70.43
73338;BME280;61575;49.908;35.556;2023-02-28T10:09:03;100112.22;;;-0.49;71.14
73338;BME280;61575;49.908;35.556;2023-02-28T10:12:13;100109.81;;;-0.22;71.19
73338;BME280;61575;49.908;35.556;2023-02-28T10:15:17;100106.25;;;-0.36;71.32
73338;BME280;61575;49.908;35.556;2023-02-28T10:18:28;100113.41;;;-0.23;71.50
73338;BME280;61575;49.908;35.556;2023-02-28T10:21:36;100101.97;;;-0.23;71.58
73338;BME280;61575;49.908;35.556;2023-02-28T10:24:47;100107.19;;;-0.22;71.62
73338;BME280;61575;49.908;35.556;2023-02-28T10:27:53;100096.91;;;0.04;71.33
73338;BME280;61575;49.908;35.556;2023-02-28T10:30:56;100097.84;;;0.03;71.34
73338;BME280;61575;49.908;35.556;2023-02-28T10:33:59;100098.72;;;-0.13;71.08
73338;BME280;61575;49.908;35.556;2023-02-28T10:37:03;100081.47;;;-0.34;71.16
73338;BME280;61575;49.908;35.556;2023-02-28T10:40:34;100089.47;;;-0.20;71.56
73338;BME280;61575;49.908;35.556;2023-02-28T10:43:41;100083.72;;;0.04;71.69
73338;BME280;61575;49.908;35.556;2023-02-28T10:46:43;100089.00;;;0.04;71.92
73338;BME280;61575;49.908;35.556;2023-02-28T10:49:48;100083.31;;;-0.04;71.87
73338;BME280;61575;49.908;35.556;2023-02-28T10:52:50;100083.75;;;0.18;71.25
73338;BME280;61575;49.908;35.556;2023-02-28T11:05:35;100061.22;;;0.27;71.32
73338;BME280;61575;49.908;35.556;2023-02-28T11:08:45;100052.63;;;0.23;71.18
73338;BME280;61575;49.908;35.556;2023-02-28T11:11:48;100051.31;;;0.30;71.10
73338;BME280;61575;49.908;35.556;2023-02-28T11:15:04;100044.13;;;0.18;71.20
73338;BME280;61575;49.908;35.556;2023-02-28T11:24:36;100048.09;;;0.25;70.52
73338;BME280;61575;49.908;35.556;2023-02-28T11:27:48;100053.75;;;0.19;71.07
73338;BME280;61575;49.908;35.556;2023-02-28T11:34:25;100049.41;;;0.18;71.39
73338;BME280;61575;49.908;35.556;2023-02-28T11:37:28;100048.44;;;0.05;71.54
73338;BME280;61575;49.908;35.556;2023-02-28T11:44:36;100055.38;;;-0.08;71.59
73338;BME280;61575;49.908;35.556;2023-02-28T11:47:50;100050.69;;;-0.03;72.10
73338;BME280;61575;49.908;35.556;2023-02-28T11:51:22;100050.41;;;-0.29;72.44
73338;BME280;61575;49.908;35.556;2023-02-28T11:58:00;100052.69;;;-0.23;72.19
73338;BME280;61575;49.908;35.556;2023-02-28T12:08:15;100048.63;;;-0.28;72.14
73338;BME280;61575;49.908;35.556;2023-02-28T12:14:54;100047.84;;;-0.30;72.33
73338;BME280;61575;49.908;35.556;2023-02-28T12:21:43;100036.41;;;-0.15;72.35
73338;BME280;61575;49.908;35.556;2023-02-28T12:28:12;100030.19;;;-0.44;73.27
73338;BME280;61575;49.908;35.556;2023-02-28T12:31:38;100029.28;;;-0.29;73.31
73338;BME280;61575;49.908;35.556;2023-02-28T12:34:49;100027.16;;;-0.22;73.03
73338;BME280;61575;49.908;35.556;2023-02-28T12:38:01;100019.28;;;-0.38;73.26
73338;BME280;61575;49.908;35.556;2023-02-28T12:45:37;100019.53;;;-0.42;74.07
73338;BME280;61575;49.908;35.556;2023-02-28T12:48:45;100016.13;;;-0.45;73.72
73338;BME280;61575;49.908;35.556;2023-02-28T12:51:48;100013.88;;;-0.66;74.24
73338;BME280;61575;49.908;35.556;2023-02-28T12:54:52;100018.63;;;-0.57;73.94
73338;BME280;61575;49.908;35.556;2023-02-28T12:58:08;100004.34;;;-0.69;73.73
73338;BME280;61575;49.908;35.556;2023-02-28T13:10:58;100000.63;;;-0.96;75.49
73338;BME280;61575;49.908;35.556;2023-02-28T13:14:04;99997.13;;;-0.81;75.16
73338;BME280;61575;49.908;35.556;2023-02-28T13:20:20;99993.63;;;-0.82;75.63
73338;BME280;61575;49.908;35.556;2023-02-28T13:30:00;99991.38;;;-1.19;75.92
73338;BME280;61575;49.908;35.556;2023-02-28T13:33:29;99981.78;;;-1.20;76.51
73338;BME280;61575;49.908;35.556;2023-02-28T13:36:32;99984.84;;;-1.12;76.54
73338;BME280;61575;49.908;35.556;2023-02-28T13:42:47;99986.94;;;-1.03;76.25
73338;BME280;61575;49.908;35.556;2023-02-28T13:46:12;99977.88;;;-1.13;76.26
73338;BME280;61575;49.908;35.556;2023-02-28T13:49:27;99977.28;;;-1.18;76.47
73338;BME280;61575;49.908;35.556;2023-02-28T13:52:31;99974.03;;;-1.23;76.50
73338;BME280;61575;49.908;35.556;2023-02-28T14:06:28;99957.03;;;-1.49;77.12
73338;BME280;61575;49.908;35.556;2023-02-28T14:09:38;99958.38;;;-1.42;77.16
73338;BME280;61575;49.908;35.556;2023-02-28T14:12:55;99958.13;;;-1.53;77.25
73338;BME280;61575;49.908;35.556;2023-02-28T14:16:02;99953.78;;;-1.54;77.03
73338;BME280;61575;49.908;35.556;2023-02-28T14:19:12;99946.19;;;-2.09;77.73
73338;BME280;61575;49.908;35.556;2023-02-28T14:39:22;99937.09;;;-1.70;78.15
73338;BME280;61575;49.908;35.556;2023-02-28T14:42:33;99931.59;;;-1.66;77.81
73338;BME280;61575;49.908;35.556;2023-02-28T14:45:36;99926.81;;;-1.75;77.98
73338;BME280;61575;49.908;35.556;2023-02-28T14:48:39;99926.72;;;-1.89;77.97
73338;BME280;61575;49.908;35.556;2023-02-28T14:51:41;99928.81;;;-1.96;78.37
73338;BME280;61575;49.908;35.556;2023-02-28T14:54:52;99918.63;;;-2.02;78.57
73338;BME280;61575;49.908;35.556;2023-02-28T14:57:57;99917.69;;;-2.01;78.57
73338;BME280;61575;49.908;35.556;2023-02-28T15:01:03;99914.41;;;-1.89;78.56
73338;BME280;61575;49.908;35.556;2023-02-28T15:04:06;99903.97;;;-1.90;78.61
73338;BME280;61575;49.908;35.556;2023-02-28T15:07:13;99915.78;;;-2.15;78.83
73338;BME280;61575;49.908;35.556;2023-02-28T15:13:21;99921.31;;;-2.03;78.94
73338;BME280;61575;49.908;35.556;2023-02-28T15:16:34;99918.78;;;-2.05;78.78
73338;BME280;61575;49.908;35.556;2023-02-28T15:19:50;99915.31;;;-2.23;79.15
73338;BME280;61575;49.908;35.556;2023-02-28T15:22:55;99916.84;;;-2.01;78.89
73338;BME280;61575;49.908;35.556;2023-02-28T15:25:58;99912.25;;;-1.98;78.87
73338;BME280;61575;49.908;35.556;2023-02-28T15:29:07;99919.22;;;-1.97;79.22
73338;BME280;61575;49.908;35.556;2023-02-28T15:32:21;99916.28;;;-1.91;79.33
73338;BME280;61575;49.908;35.556;2023-02-28T15:35:29;99911.16;;;-1.94;79.98
73338;BME280;61575;49.908;35.556;2023-02-28T15:38:35;99910.81;;;-2.03;80.15
73338;BME280;61575;49.908;35.556;2023-02-28T15:41:39;99894.19;;;-2.21;80.09
73338;BME280;61575;49.908;35.556;2023-02-28T15:44:41;99920.03;;;-2.12;79.66
73338;BME280;61575;49.908;35.556;2023-02-28T15:47:45;99908.56;;;-2.11;79.81
73338;BME280;61575;49.908;35.556;2023-02-28T15:50:56;99910.44;;;-2.13;79.36
73338;BME280;61575;49.908;35.556;2023-02-28T15:54:15;99918.13;;;-2.26;79.42
73338;BME280;61575;49.908;35.556;2023-02-28T15:57:25;99922.69;;;-2.29;79.28
73338;BME280;61575;49.908;35.556;2023-02-28T16:00:30;99929.16;;;-2.19;79.52
73338;BME280;61575;49.908;35.556;2023-02-28T16:03:41;99929.19;;;-2.36;79.65
73338;BME280;61575;49.908;35.556;2023-02-28T16:07:05;99932.59;;;-2.34;79.63
73338;BME280;61575;49.908;35.556;2023-02-28T16:10:09;99936.75;;;-2.13;79.83
73338;BME280;61575;49.908;35.556;2023-02-28T16:13:12;99932.66;;;-2.19;79.64
73338;BME280;61575;49.908;35.556;2023-02-28T16:16:18;99935.28;;;-2.19;79.27
73338;BME280;61575;49.908;35.556;2023-02-28T16:19:21;99940.69;;;-2.22;79.47
73338;BME280;61575;49.908;35.556;2023-02-28T16:22:23;99936.38;;;-2.23;79.56
73338;BME280;61575;49.908;35.556;2023-02-28T16:25:32;99936.75;;;-2.13;79.03
73338;BME280;61575;49.908;35.556;2023-02-28T16:28:36;99931.97;;;-2.22;79.74
73338;BME280;61575;49.908;35.556;2023-02-28T16:31:39;99931.44;;;-2.29;78.67
73338;BME280;61575;49.908;35.556;2023-02-28T16:34:44;99918.44;;;-2.49;78.27
73338;BME280;61575;49.908;35.556;2023-02-28T16:37:46;99917.97;;;-2.40;78.32
73338;BME280;61575;49.908;35.556;2023-02-28T16:40:53;99916.72;;;-2.33;78.17
73338;BME280;61575;49.908;35.556;2023-02-28T16:43:58;99915.34;;;-2.57;79.28
73338;BME280;61575;49.908;35.556;2023-02-28T16:47:03;99913.56;;;-2.39;79.30
73338;BME280;61575;49.908;35.556;2023-02-28T16:53:17;99915.09;;;-2.35;79.95
73338;BME280;61575;49.908;35.556;2023-02-28T16:56:23;99920.84;;;-2.45;79.23
73338;BME280;61575;49.908;35.556;2023-02-28T16:59:28;99917.28;;;-2.44;78.37
73338;BME280;61575;49.908;35.556;2023-02-28T17:02:30;99910.88;;;-2.55;78.63
73338;BME280;61575;49.908;35.556;2023-02-28T17:05:37;99911.31;;;-2.47;78.37
73338;BME280;61575;49.908;35.556;2023-02-28T17:08:41;99899.56;;;-2.57;79.15
73338;BME280;61575;49.908;35.556;2023-02-28T17:11:45;99905.69;;;-2.57;78.72
73338;BME280;61575;49.908;35.556;2023-02-28T17:14:48;99895.63;;;-2.49;78.96
73338;BME280;61575;49.908;35.556;2023-02-28T17:17:50;99884.19;;;-2.48;78.31
73338;BME280;61575;49.908;35.556;2023-02-28T17:20:54;99877.91;;;-2.45;78.46
73338;BME280;61575;49.908;35.556;2023-02-28T17:23:59;99877.38;;;-2.52;78.32
73338;BME280;61575;49.908;35.556;2023-02-28T17:27:02;99877.00;;;-2.61;78.16
73338;BME280;61575;49.908;35.556;2023-02-28T17:30:25;99867.94;;;-2.56;77.71
73338;BME280;61575;49.908;35.556;2023-02-28T17:33:30;99853.88;;;-2.55;77.85
73338;BME280;61575;49.908;35.556;2023-02-28T17:36:33;99871.03;;;-2.48;77.88
73338;BME280;61575;49.908;35.556;2023-02-28T17:39:39;99864.63;;;-2.59;78.13
73338;BME280;61575;49.908;35.556;2023-02-28T17:42:41;99863.31;;;-2.51;78.60
73338;BME280;61575;49.908;35.556;2023-02-28T17:45:44;99864.31;;;-2.53;78.65
73338;BME280;61575;49.908;35.556;2023-02-28T17:48:50;99854.44;;;-2.65;78.04
73338;BME280;61575;49.908;35.556;2023-02-28T17:51:52;99862.00;;;-2.59;78.26
73338;BME280;61575;49.908;35.556;2023-02-28T17:54:56;99871.28;;;-2.52;78.15
73338;BME280;61575;49.908;35.556;2023-02-28T17:57:58;99868.56;;;-2.51;78.10
73338;BME280;61575;49.908;35.556;2023-02-28T18:01:00;99865.41;;;-2.57;77.95
73338;BME280;61575;49.908;35.556;2023-02-28T18:04:02;99854.81;;;-2.56;78.09
73338;BME280;61575;49.908;35.556;2023-02-28T18:07:06;99859.91;;;-2.53;78.38
73338;BME280;61575;49.908;35.556;2023-02-28T18:10:16;99846.69;;;-2.51;78.23
73338;BME280;61575;49.908;35.556;2023-02-28T18:13:22;99854.44;;;-2.65;78.14
73338;BME280;61575;49.908;35.556;2023-02-28T18:16:26;99859.75;;;-2.67;78.24
73338;BME280;61575;49.908;35.556;2023-02-28T18:19:28;99867.66;;;-2.67;77.78
73338;BME280;61575;49.908;35.556;2023-02-28T18:22:30;99874.06;;;-2.72;77.64
73338;BME280;61575;49.908;35.556;2023-02-28T18:25:32;99877.94;;;-2.80;78.05
73338;BME280;61575;49.908;35.556;2023-02-28T18:28:34;99875.38;;;-2.81;77.77
73338;BME280;61575;49.908;35.556;2023-02-28T18:31:37;99869.03;;;-2.94;78.74
73338;BME280;61575;49.908;35.556;2023-02-28T18:34:38;99873.22;;;-2.90;78.34